»·PEaware :: N148WT KSNA-KTOA

N148WT :: KSNA-KTOA

FLIGHT INFORMATION

Flight Status: Arrived
Operator: Privately registered:
United States
More flights under this callsign
Pilot: Vlad D. (11271)
Aircraft: Unknown
(B60T)
More flights by this aircraft type
Origin: KSNA John Wayne-Orange Co
United States
Destination: KTOA Zamperini
United States
More flights between these airports :: More routes between these airports
Route: +WILMA LAX CHATY SILEX SMO VPLSR KTOA
File this flight plan on PilotEdge
Remarks: Coastal route through Bravo, Mini route back to Torrance
Altitude:
(Current/Filed)
6,500ft
Speed:
(Current/Filed)
140kts
Departed: 12-May-16 04:26 PM
Arrived: 12-May-16 05:07 PM
Distance/Time
Traveled:
25nm/0:41
Distance/Time
To Go:
Arrived

Flight Plot

Page will automatically refresh every two minutes.


Map Options




Map Legend


Flown Route
Filed Route
Departure Airport
Arrival Airport
Navaid (VOR, NDB)
Fix

Horizontal Profiles

Position Reports

Time Latitude Longitude Heading Altitude Ground
Speed
12-May-16 15:52 33.674735 -117.871675 219 59ft 0kts
12-May-16 15:53 33.674735 -117.871675 219 59ft 0kts
12-May-16 15:54 33.674735 -117.871675 219 59ft 0kts
12-May-16 15:55 33.674734 -117.871676 219 59ft 0kts
12-May-16 15:56 33.674734 -117.871676 219 59ft 0kts
12-May-16 15:57 33.674729 -117.871666 255 59ft 0kts
12-May-16 15:58 33.674729 -117.871668 255 59ft 0kts
12-May-16 15:59 33.674728 -117.871673 255 59ft 0kts
12-May-16 16:00 33.674727 -117.871677 255 59ft 0kts
12-May-16 16:01 33.674726 -117.871681 255 59ft 0kts
12-May-16 16:02 33.674725 -117.871685 255 59ft 0kts
12-May-16 16:03 33.674724 -117.871689 255 59ft 0kts
12-May-16 16:04 33.674723 -117.871693 255 59ft 0kts
12-May-16 16:05 33.674722 -117.871698 255 59ft 0kts
12-May-16 16:06 33.674722 -117.871702 255 59ft 0kts
12-May-16 16:07 33.674721 -117.871707 255 59ft 0kts
12-May-16 16:08 33.674720 -117.871711 255 59ft 0kts
12-May-16 16:09 33.674691 -117.871788 225 59ft 3kts
12-May-16 16:10 33.674683 -117.871014 25 59ft 2kts
12-May-16 16:11 33.675734 -117.870370 28 59ft 5kts
12-May-16 16:12 33.677068 -117.869426 77 59ft 5kts
12-May-16 16:13 33.676810 -117.869113 202 59ft 0kts
12-May-16 16:14 33.676807 -117.869115 202 59ft 0kts
12-May-16 16:15 33.676802 -117.869117 202 59ft 0kts
12-May-16 16:16 33.676793 -117.869122 202 59ft 0kts
12-May-16 16:17 33.676783 -117.869127 202 59ft 0kts
12-May-16 16:18 33.677231 -117.869454 26 59ft 3kts
12-May-16 16:19 33.678531 -117.868651 25 59ft 5kts
12-May-16 16:20 33.679919 -117.867808 26 59ft 5kts
12-May-16 16:21 33.680996 -117.867017 78 59ft 3kts
12-May-16 16:22 33.680842 -117.866438 115 59ft 0kts
12-May-16 16:23 33.680841 -117.866435 115 59ft 0kts
12-May-16 16:24 33.680401 -117.865867 190 59ft 2kts
12-May-16 16:25 33.665485 -117.875966 210 378ft 129kts
12-May-16 16:26 33.660182 -117.918384 260 2040ft 148kts
12-May-16 16:27 33.642034 -117.969481 243 2377ft 170kts
12-May-16 16:28 33.625782 -118.015091 245 3249ft 128kts
12-May-16 16:29 33.610490 -118.052478 247 4399ft 129kts
12-May-16 16:30 33.620386 -118.093311 300 4506ft 134kts
12-May-16 16:31 33.645658 -118.127071 317 4501ft 137kts
12-May-16 16:32 33.675001 -118.156057 320 4496ft 134kts
12-May-16 16:33 33.702104 -118.183106 318 4994ft 106kts
12-May-16 16:34 33.728954 -118.211534 317 6395ft 157kts
12-May-16 16:35 33.763721 -118.254283 279 6500ft 188kts
12-May-16 16:36 33.726121 -118.265207 148 6491ft 176kts
12-May-16 16:37 33.726746 -118.226860 2 6541ft 160kts
12-May-16 16:38 33.765610 -118.249416 317 6493ft 154kts
12-May-16 16:39 33.798395 -118.285909 317 6475ft 168kts
12-May-16 16:40 33.831419 -118.321810 317 6496ft 153kts
12-May-16 16:41 33.862401 -118.355395 317 6499ft 152kts
12-May-16 16:42 33.889134 -118.384338 317 6500ft 151kts
12-May-16 16:43 33.920017 -118.418411 316 6500ft 149kts
12-May-16 16:44 33.955827 -118.445199 338 6505ft 161kts
12-May-16 16:45 33.996864 -118.461832 335 6490ft 152kts
12-May-16 16:46 34.034789 -118.481648 338 6500ft 147kts
12-May-16 16:47 34.073057 -118.500263 338 6493ft 146kts
12-May-16 16:48 34.112009 -118.519199 338 6484ft 160kts
12-May-16 16:49 34.153891 -118.539597 338 6096ft 170kts
12-May-16 16:50 34.197007 -118.560474 338 4673ft 167kts
12-May-16 16:51 34.213909 -118.596761 244 3498ft 104kts
12-May-16 16:52 34.186017 -118.602737 143 3509ft 143kts
12-May-16 16:53 34.153365 -118.575000 146 3483ft 141kts
12-May-16 16:54 34.116802 -118.554140 150 2500ft 143kts
12-May-16 16:55 34.085679 -118.525183 144 2474ft 131kts
12-May-16 16:56 34.058400 -118.500380 144 2480ft 113kts
12-May-16 16:57 34.033717 -118.478002 144 2508ft 118kts
12-May-16 16:58 34.004967 -118.451600 139 2502ft 135kts
12-May-16 16:59 33.973442 -118.425859 159 2502ft 140kts
12-May-16 17:00 33.942499 -118.397229 140 2500ft 139kts
12-May-16 17:01 33.909967 -118.363626 140 2502ft 149kts
12-May-16 17:02 33.879072 -118.331536 140 2496ft 148kts
12-May-16 17:03 33.843346 -118.308380 180 1605ft 129kts
12-May-16 17:04 33.812209 -118.311001 193 1376ft 101kts
12-May-16 17:05 33.796827 -118.329358 310 308ft 93kts
12-May-16 17:06 33.804982 -118.341072 308 106ft 18kts
12-May-16 17:07 33.805943 -118.343997 289 106ft 1kts
12-May-16 17:08 33.805955 -118.344037 289 106ft 0kts
12-May-16 17:09 33.805956 -118.344041 289 106ft 0kts
12-May-16 17:10 33.805957 -118.344045 289 106ft 0kts
12-May-16 17:11 33.805958 -118.344049 289 106ft 0kts
12-May-16 17:12 33.805959 -118.344052 289 106ft 0kts
12-May-16 17:13 33.806011 -118.344929 239 106ft 5kts
12-May-16 17:14 33.804898 -118.344860 127 106ft 2kts
12-May-16 17:15 33.804454 -118.345439 309 106ft 4kts
12-May-16 17:16 33.804538 -118.345900 217 106ft 0kts
12-May-16 17:17 33.804536 -118.345901 217 106ft 0kts

Navigation Log

Ident Type
Flight plan parsing failed, navigation log unavailable